Pays
Station

 

Conditions  météo  pour  Juanjui  -  Pérou    Pérou

  
34 °C
    
 
 

METAR pour Juanjui :

SPJI 222100Z 12002KT 9999 FEW030TCU SCT080 34/24 Q1015 RMK TX34.6 PP000

 

Voici le bulletin pour Juanjui - Pérou.
 
Le bulletin a été fait il y a 8 heures et 7 minutes, à 21:00 UTC .
Le vent soufflait à la vitesse de 1.0 mètres par seconde de Est/Sud-est (120°).
 
La température était de 34 °C, avec un point de rosée à 24 °C.
La température ressentie était de 41 °C.
 
La pression atmosphérique était de 1015 hPa.
L'humidité relative était de 56.1%.
 
Il y avait 1 à 2/8ème cumulus congestus de nébulosité à une hauteur de 914 mètres et 3 à 4/8ème de nébulosité à une hauteur de 2438 mètres.
 
La visibilité globale était de supérieure à 10 kilomètres.
 

 
 
 

Pays :   A   B   C   D   E   F   G   H   I   J   K   L   M   N   O   P   Q   R   S   T   U   V   W   Y   Z

 

Partenaires :  Info Météo avec Met'info
Météo Marine avec MeteoMarine.net
Infos Site  |  Infos Légales  |  Crédits  |  Confidentialité
Contactez-nous  |  Ajouter aux favoris
© 2013-2018 METAR - Tous droits réservés